Time;durP1;ratioP1;P1;durP2;ratioP2;P2;SDS_P1;SDS_P2;PMS_P1;PMS_P2;Temp;Humidity;BMP_temperature;BMP_pressure;BME280_temperature;BME280_humidity;BME280_pressure;Samples;Min_cycle;Max_cycle;Signal;HPM_P1;HPM_P2
2022/03/19 00:01:33;;;;;;;15.40;2.60;;;5.00;99.90;;;;;;5050213;28;20464;-68
2022/03/19 00:03:59;;;;;;;12.07;2.10;;;5.00;99.90;;;;;;5054084;28;20059;-68
2022/03/19 00:06:25;;;;;;;11.47;2.20;;;5.00;99.90;;;;;;5055905;28;20173;-72
2022/03/19 00:08:50;;;;;;;15.43;2.37;;;5.00;99.90;;;;;;5052001;28;20056;-69
2022/03/19 00:11:17;;;;;;;15.00;2.37;;;4.90;99.90;;;;;;5054174;28;20421;-68
2022/03/19 00:13:42;;;;;;;13.05;2.63;;;4.90;99.90;;;;;;5037072;28;20405;-71
2022/03/19 00:16:08;;;;;;;7.80;3.13;;;4.90;99.90;;;;;;5057447;28;20033;-70
2022/03/19 00:18:34;;;;;;;12.27;2.67;;;4.90;99.90;;;;;;5056911;28;20369;-75
2022/03/19 00:21:02;;;;;;;14.03;2.43;;;4.80;99.90;;;;;;5036259;28;20045;-70
2022/03/19 00:23:28;;;;;;;6.45;1.45;;;4.80;99.90;;;;;;5041188;28;20484;-71
2022/03/19 00:25:54;;;;;;;10.87;2.20;;;4.80;99.90;;;;;;5053926;28;20048;-72
2022/03/19 00:28:19;;;;;;;13.50;2.43;;;4.80;99.90;;;;;;5052150;28;20075;-70
2022/03/19 00:30:47;;;;;;;9.43;2.27;;;4.70;99.90;;;;;;5059680;28;20441;-70
2022/03/19 00:33:12;;;;;;;11.15;3.10;;;4.70;99.90;;;;;;5052200;28;20052;-70
2022/03/19 00:35:38;;;;;;;12.77;2.38;;;4.70;99.90;;;;;;5053056;28;20056;-71
2022/03/19 00:38:04;;;;;;;12.37;2.37;;;4.70;99.90;;;;;;5052601;28;20136;-70
2022/03/19 00:40:32;;;;;;;15.65;2.38;;;4.60;99.90;;;;;;5054074;28;20067;-70
2022/03/19 00:42:58;;;;;;;6.80;1.85;;;4.60;99.90;;;;;;5052106;28;20185;-70
2022/03/19 00:45:23;;;;;;;13.83;2.23;;;4.60;99.90;;;;;;5030125;28;20116;-71
2022/03/19 00:47:49;;;;;;;8.77;2.57;;;4.60;99.90;;;;;;5053030;28;20311;-72
2022/03/19 00:50:15;;;;;;;12.30;2.50;;;4.60;99.90;;;;;;5050142;28;20036;-71
2022/03/19 00:52:40;;;;;;;15.17;1.97;;;4.50;99.90;;;;;;5041307;28;20136;-70
2022/03/19 00:55:07;;;;;;;13.17;1.97;;;4.50;99.90;;;;;;5040838;28;20060;-70
2022/03/19 00:57:44;;;;;;;13.38;1.95;;;4.50;99.90;;;;;;5063285;28;20056;-70
2022/03/19 01:00:11;;;;;;;13.43;2.03;;;4.50;99.90;;;;;;5037604;28;20081;-71
2022/03/19 01:02:41;;;;;;;8.80;1.85;;;4.40;99.90;;;;;;5060061;28;20438;-71
2022/03/19 01:05:09;;;;;;;16.77;2.10;;;4.40;99.90;;;;;;5058029;28;20481;-70
2022/03/19 01:07:47;;;;;;;9.15;1.95;;;4.40;99.90;;;;;;5064650;28;20063;-70
2022/03/19 01:10:15;;;;;;;11.50;2.08;;;4.40;99.90;;;;;;5036330;28;20067;-70
2022/03/19 01:12:40;;;;;;;10.75;2.63;;;4.30;99.90;;;;;;5037342;28;21370;-72
2022/03/19 01:15:09;;;;;;;9.90;1.63;;;4.30;99.90;;;;;;5061363;28;20627;-70
2022/03/19 01:17:35;;;;;;;13.48;2.20;;;4.30;99.90;;;;;;5039401;28;20048;-70
2022/03/19 01:20:02;;;;;;;11.85;2.47;;;4.30;99.90;;;;;;5056858;28;20051;-71
2022/03/19 01:22:28;;;;;;;16.52;2.58;;;4.20;99.90;;;;;;5040445;28;20044;-71
2022/03/19 01:24:55;;;;;;;15.25;2.28;;;4.20;99.90;;;;;;5030287;28;20055;-71
2022/03/19 01:27:21;;;;;;;11.07;2.33;;;4.20;99.90;;;;;;5057309;28;20044;-70
2022/03/19 01:29:47;;;;;;;8.10;2.10;;;4.20;99.90;;;;;;5043023;28;20044;-70
2022/03/19 01:32:13;;;;;;;15.63;2.90;;;4.30;99.90;;;;;;5056693;28;20355;-70
2022/03/19 01:34:39;;;;;;;7.65;2.50;;;4.20;99.90;;;;;;5066805;28;20232;-70
2022/03/19 01:37:05;;;;;;;7.30;1.63;;;4.20;99.90;;;;;;5061230;28;20124;-70
2022/03/19 01:39:31;;;;;;;7.50;1.40;;;4.20;99.90;;;;;;5059289;28;20043;-71
2022/03/19 01:41:57;;;;;;;13.55;2.03;;;4.10;99.90;;;;;;5064588;28;20068;-69
2022/03/19 01:44:23;;;;;;;10.53;2.03;;;4.10;99.90;;;;;;5045135;28;20453;-70
2022/03/19 01:46:59;;;;;;;17.20;2.67;;;4.10;99.90;;;;;;5060369;28;20029;-69
2022/03/19 01:49:26;;;;;;;9.50;1.90;;;4.10;99.90;;;;;;5059556;28;20120;-68
2022/03/19 01:51:52;;;;;;;14.15;2.00;;;4.10;99.90;;;;;;5063573;28;20203;-68
2022/03/19 01:54:26;;;;;;;13.13;1.90;;;4.10;99.90;;;;;;5047999;28;20059;-68
2022/03/19 01:56:53;;;;;;;11.68;2.08;;;4.10;99.90;;;;;;5045885;28;20350;-68
2022/03/19 01:59:24;;;;;;;16.85;2.38;;;4.10;99.90;;;;;;5044703;28;20068;-69
2022/03/19 02:01:50;;;;;;;10.48;1.83;;;4.10;99.90;;;;;;5054624;28;20036;-67
2022/03/19 02:04:16;;;;;;;14.30;2.03;;;4.10;99.90;;;;;;5033621;28;20044;-67
2022/03/19 02:06:44;;;;;;;8.05;2.03;;;4.10;99.90;;;;;;5057850;28;20036;-68
2022/03/19 02:09:10;;;;;;;5.78;1.80;;;4.10;99.90;;;;;;5039530;28;20051;-67
2022/03/19 02:11:36;;;;;;;13.27;2.20;;;4.00;99.90;;;;;;5060734;28;20032;-67
2022/03/19 02:14:03;;;;;;;21.13;2.40;;;4.10;99.90;;;;;;5038496;28;20076;-67
2022/03/19 02:16:29;;;;;;;;;;;4.00;99.90;;;;;;5064179;28;20041;-67
2022/03/19 02:18:57;;;;;;;6.97;1.58;;;4.00;99.90;;;;;;5046324;28;19924;-67
2022/03/19 02:21:23;;;;;;;6.07;1.73;;;4.00;99.90;;;;;;5070545;28;20147;-68
2022/03/19 02:26:44;;;;;;;7.65;1.52;;;4.00;99.90;;;;;;5045554;28;20048;-68
2022/03/19 02:29:10;;;;;;;12.30;2.08;;;4.00;99.90;;;;;;5064644;28;20043;-68
2022/03/19 02:31:42;;;;;;;13.20;2.13;;;4.00;99.90;;;;;;5071831;22;20057;-67
2022/03/19 02:34:08;;;;;;;6.72;1.95;;;4.00;99.90;;;;;;5017841;28;20440;-68
2022/03/19 02:36:40;;;;;;;13.23;2.40;;;3.90;99.90;;;;;;5027564;28;20071;-68
2022/03/19 02:39:13;;;;;;;16.05;3.17;;;3.90;99.90;;;;;;5013133;28;20044;-68
2022/03/19 02:41:52;;;;;;;8.60;1.70;;;3.90;99.90;;;;;;5040662;28;20048;-68
2022/03/19 02:44:19;;;;;;;10.82;2.22;;;3.90;99.90;;;;;;5013638;28;20051;-68
2022/03/19 02:46:49;;;;;;;12.95;2.05;;;3.90;99.90;;;;;;5036389;28;20030;-68
2022/03/19 02:49:16;;;;;;;7.38;2.08;;;3.90;99.90;;;;;;5033768;28;22558;-68
2022/03/19 02:51:43;;;;;;;9.75;2.63;;;3.90;99.90;;;;;;5038798;28;20048;-68
2022/03/19 02:54:12;;;;;;;8.30;1.80;;;3.90;99.90;;;;;;5039072;28;20045;-68
2022/03/19 02:56:40;;;;;;;7.65;2.05;;;3.90;99.90;;;;;;5045357;28;20025;-68
2022/03/19 02:59:13;;;;;;;9.30;1.98;;;3.80;99.90;;;;;;5040477;28;20045;-68
2022/03/19 03:01:40;;;;;;;12.70;2.25;;;3.80;99.90;;;;;;5038415;28;20137;-68
2022/03/19 03:04:06;;;;;;;13.30;2.42;;;3.80;99.90;;;;;;5012871;28;20037;-68
2022/03/19 03:06:36;;;;;;;14.02;1.90;;;3.80;99.90;;;;;;5044464;28;20095;-69
2022/03/19 03:09:03;;;;;;;12.57;1.95;;;3.80;99.90;;;;;;5035268;28;20044;-68
2022/03/19 03:11:29;;;;;;;11.65;2.40;;;3.80;99.90;;;;;;5036201;28;20077;-68
2022/03/19 03:13:54;;;;;;;6.43;2.10;;;3.80;99.90;;;;;;5038554;28;20037;-68
2022/03/19 03:16:20;;;;;;;11.03;1.90;;;3.70;99.90;;;;;;5038283;28;20812;-68
2022/03/19 03:18:46;;;;;;;10.25;2.17;;;3.70;99.90;;;;;;5029856;28;20044;-68
2022/03/19 03:21:11;;;;;;;8.77;1.87;;;3.70;99.90;;;;;;5038733;28;20048;-68
2022/03/19 03:23:37;;;;;;;11.63;2.67;;;3.70;99.90;;;;;;5021181;28;20083;-68
2022/03/19 03:26:03;;;;;;;11.83;2.17;;;3.70;99.90;;;;;;5029763;28;20069;-68
2022/03/19 03:28:28;;;;;;;10.87;2.03;;;3.70;99.90;;;;;;5039480;28;20489;-68
2022/03/19 03:30:54;;;;;;;11.27;1.90;;;3.70;99.90;;;;;;5045539;28;20541;-68
2022/03/19 03:33:19;;;;;;;11.27;2.37;;;3.70;99.90;;;;;;5040358;28;20496;-68
2022/03/19 03:35:45;;;;;;;13.80;2.43;;;3.70;99.90;;;;;;5039207;28;20043;-68
2022/03/19 03:38:14;;;;;;;8.00;1.83;;;3.70;99.90;;;;;;5040122;28;20053;-69
2022/03/19 03:40:41;;;;;;;10.45;2.67;;;3.70;99.90;;;;;;5033187;28;20039;-68
2022/03/19 03:43:07;;;;;;;9.25;1.92;;;3.70;99.90;;;;;;5044790;28;20045;-68
2022/03/19 03:45:34;;;;;;;12.23;2.08;;;3.70;99.90;;;;;;5044025;28;20043;-68
2022/03/19 03:48:00;;;;;;;11.65;2.08;;;3.60;99.90;;;;;;5037126;28;20683;-67
2022/03/19 03:50:26;;;;;;;9.90;2.58;;;3.60;99.90;;;;;;5036263;28;20394;-68
2022/03/19 03:52:52;;;;;;;11.70;2.28;;;3.60;99.90;;;;;;5038273;28;20085;-67
2022/03/19 03:55:18;;;;;;;9.67;2.53;;;3.60;99.90;;;;;;5021470;28;20079;-68
2022/03/19 03:57:43;;;;;;;9.27;2.78;;;3.60;99.90;;;;;;5018947;28;20146;-68
2022/03/19 04:00:10;;;;;;;14.47;2.50;;;3.60;99.90;;;;;;5041680;28;20397;-69
2022/03/19 04:02:36;;;;;;;8.93;2.42;;;3.60;99.90;;;;;;5033282;28;20493;-68
2022/03/19 04:05:03;;;;;;;;;;;3.60;99.90;;;;;;5049322;28;20041;-68
2022/03/19 04:07:29;;;;;;;11.97;2.40;;;3.60;99.90;;;;;;5029602;28;20359;-68
2022/03/19 04:09:55;;;;;;;7.37;2.10;;;3.50;99.90;;;;;;5030054;28;20041;-68
2022/03/19 04:12:22;;;;;;;17.50;3.03;;;3.60;99.90;;;;;;5042413;28;20323;-69
2022/03/19 04:14:47;;;;;;;9.02;2.75;;;3.50;99.90;;;;;;5019685;28;20029;-69
2022/03/19 04:17:13;;;;;;;9.50;2.33;;;3.50;99.90;;;;;;5036720;28;20584;-68
2022/03/19 04:19:39;;;;;;;9.80;2.10;;;3.60;99.90;;;;;;5040178;28;20806;-68
2022/03/19 04:22:04;;;;;;;11.77;2.33;;;3.50;99.90;;;;;;5021156;28;20497;-68
2022/03/19 04:24:30;;;;;;;6.73;2.47;;;3.60;99.90;;;;;;5020185;28;20040;-68
2022/03/19 04:26:56;;;;;;;9.90;2.40;;;3.50;99.90;;;;;;5021054;28;20038;-68
2022/03/19 04:29:22;;;;;;;12.57;2.92;;;3.50;99.90;;;;;;5044272;28;20045;-68
2022/03/19 04:31:47;;;;;;;19.03;2.67;;;3.50;99.90;;;;;;5036526;28;20026;-68
2022/03/19 04:34:13;;;;;;;11.27;3.00;;;3.50;99.90;;;;;;5038414;28;20424;-68
2022/03/19 04:36:39;;;;;;;9.90;3.17;;;3.50;99.90;;;;;;5040776;28;20440;-68
2022/03/19 04:39:06;;;;;;;11.00;2.30;;;3.50;99.90;;;;;;5037358;28;20037;-68
2022/03/19 04:41:33;;;;;;;7.45;2.70;;;3.50;99.90;;;;;;5022054;28;20048;-68
2022/03/19 04:43:59;;;;;;;14.85;2.88;;;3.50;99.90;;;;;;5038781;28;20520;-68
2022/03/19 04:46:25;;;;;;;7.72;3.28;;;3.50;99.90;;;;;;5019628;28;20049;-68
2022/03/19 04:48:50;;;;;;;8.23;3.13;;;3.50;99.90;;;;;;5046290;28;20447;-68
2022/03/19 04:51:21;;;;;;;19.67;4.43;;;3.40;99.90;;;;;;5034934;28;20127;-68
2022/03/19 04:53:51;;;;;;;15.50;4.45;;;3.50;99.90;;;;;;5044107;28;20846;-68
2022/03/19 04:56:18;;;;;;;13.02;5.07;;;3.40;99.90;;;;;;5021847;28;20052;-68
2022/03/19 04:58:43;;;;;;;14.57;4.50;;;3.50;99.90;;;;;;5019211;28;20052;-68
2022/03/19 05:01:09;;;;;;;17.93;5.23;;;3.50;99.90;;;;;;5039589;28;20049;-68
2022/03/19 05:03:35;;;;;;;21.27;5.70;;;3.50;99.90;;;;;;5048440;28;20527;-68
2022/03/19 05:06:00;;;;;;;23.80;5.90;;;3.50;99.90;;;;;;5047655;28;20052;-68
2022/03/19 05:08:26;;;;;;;23.53;6.00;;;3.50;99.90;;;;;;5020409;28;20041;-68
2022/03/19 05:13:38;;;;;;;17.70;4.03;;;3.60;99.90;;;;;;5018621;28;20124;-68
2022/03/19 05:16:03;;;;;;;18.98;4.25;;;3.60;99.90;;;;;;5024785;28;20041;-67
2022/03/19 05:18:29;;;;;;;10.57;3.60;;;3.60;99.90;;;;;;5008924;28;20383;-70
2022/03/19 05:20:56;;;;;;;15.63;3.57;;;3.60;99.90;;;;;;5046855;28;20167;-71
2022/03/19 05:23:23;;;;;;;12.73;4.40;;;3.70;99.90;;;;;;5016472;28;20070;-71
2022/03/19 05:25:49;;;;;;;;;;;3.60;99.90;;;;;;5023349;28;20041;-71
2022/03/19 05:28:15;;;;;;;14.15;3.72;;;3.70;99.90;;;;;;5021574;28;20344;-71
2022/03/19 05:30:41;;;;;;;15.02;4.32;;;3.60;99.90;;;;;;5028860;28;20043;-71
2022/03/19 05:33:06;;;;;;;14.93;3.67;;;3.60;99.90;;;;;;5046960;28;20045;-71
2022/03/19 05:35:32;;;;;;;12.00;3.20;;;3.60;99.90;;;;;;5037931;28;20505;-71
2022/03/19 05:37:59;;;;;;;13.90;4.30;;;3.60;99.90;;;;;;5035932;28;20040;-71
2022/03/19 05:40:25;;;;;;;;;;;3.70;99.90;;;;;;5047846;28;20032;-71
2022/03/19 05:42:51;;;;;;;14.70;3.67;;;3.70;99.90;;;;;;5030717;28;19917;-71
2022/03/19 05:45:19;;;;;;;16.07;3.83;;;3.60;99.90;;;;;;5023812;28;20045;-71
2022/03/19 05:47:45;;;;;;;17.13;3.80;;;3.60;99.90;;;;;;5027435;28;20033;-71
2022/03/19 05:50:11;;;;;;;15.87;3.90;;;3.60;99.90;;;;;;5025336;28;20048;-71
2022/03/19 05:52:37;;;;;;;9.10;3.38;;;3.60;99.90;;;;;;5047029;28;20503;-71
2022/03/19 05:55:03;;;;;;;9.03;3.87;;;3.60;99.90;;;;;;5028243;28;20128;-71
2022/03/19 05:57:29;;;;;;;10.45;3.72;;;3.60;99.90;;;;;;5031917;28;20076;-71
2022/03/19 05:59:54;;;;;;;12.03;4.00;;;3.60;99.90;;;;;;5040225;28;20087;-71
2022/03/19 06:02:23;;;;;;;9.80;3.20;;;3.60;99.90;;;;;;5051129;28;20033;-71
2022/03/19 06:04:48;;;;;;;13.82;3.75;;;3.60;99.90;;;;;;5044279;28;20056;-71
2022/03/19 06:07:14;;;;;;;11.73;3.73;;;3.70;99.90;;;;;;5040762;28;20049;-71
2022/03/19 06:09:40;;;;;;;13.07;4.00;;;3.70;99.90;;;;;;5010870;28;20746;-71
2022/03/19 06:12:05;;;;;;;16.03;4.47;;;3.70;99.90;;;;;;5049274;28;20060;-71
2022/03/19 06:14:31;;;;;;;17.03;3.90;;;3.70;99.90;;;;;;5019632;28;20041;-71
2022/03/19 06:16:57;;;;;;;13.03;4.93;;;3.70;99.90;;;;;;5040437;28;20044;-71
2022/03/19 06:19:22;;;;;;;15.37;4.17;;;3.70;99.90;;;;;;5026304;28;20404;-71
2022/03/19 06:21:48;;;;;;;14.00;4.23;;;3.80;99.90;;;;;;5051692;28;20029;-71
2022/03/19 06:24:13;;;;;;;11.40;4.93;;;3.80;99.90;;;;;;5025263;28;20174;-71
2022/03/19 06:26:39;;;;;;;10.63;3.77;;;3.80;99.90;;;;;;5042771;28;20040;-71
2022/03/19 06:29:05;;;;;;;10.27;4.30;;;3.90;99.90;;;;;;5035031;28;20437;-71
2022/03/19 06:31:31;;;;;;;17.48;4.75;;;3.90;99.90;;;;;;5048264;28;20111;-71
2022/03/19 06:33:57;;;;;;;14.68;4.30;;;4.00;99.90;;;;;;5012904;28;20089;-71
2022/03/19 06:39:07;;;;;;;13.45;4.15;;;4.10;99.90;;;;;;5039644;28;20393;-71
2022/03/19 06:41:33;;;;;;;21.00;5.03;;;4.10;99.90;;;;;;5038574;28;20044;-71
2022/03/19 06:43:59;;;;;;;;;;;4.20;99.90;;;;;;5014948;28;20213;-71
2022/03/19 06:46:25;;;;;;;10.75;3.92;;;4.20;99.90;;;;;;5032073;28;19952;-71
2022/03/19 06:48:50;;;;;;;10.38;3.80;;;4.20;99.90;;;;;;5021218;28;20175;-71
2022/03/19 06:51:18;;;;;;;17.53;4.80;;;4.30;99.90;;;;;;5044041;28;20044;-71
2022/03/19 06:53:46;;;;;;;16.88;6.45;;;4.30;99.90;;;;;;5043724;28;20322;-71
2022/03/19 06:56:12;;;;;;;17.45;5.88;;;4.40;99.90;;;;;;5010140;28;20511;-71
2022/03/19 06:58:38;;;;;;;;;;;4.40;99.90;;;;;;5006676;28;20183;-70
2022/03/19 07:01:04;;;;;;;14.55;4.70;;;4.50;99.90;;;;;;5046161;28;20297;-70
2022/03/19 07:03:31;;;;;;;12.73;4.97;;;4.60;99.90;;;;;;5048527;28;20032;-71
2022/03/19 07:05:57;;;;;;;11.48;4.30;;;4.60;99.90;;;;;;5031612;28;20053;-71
2022/03/19 07:08:25;;;;;;;10.40;4.70;;;4.70;99.90;;;;;;5018300;28;20045;-70
2022/03/19 07:10:50;;;;;;;16.33;4.25;;;4.70;99.90;;;;;;5035595;28;20033;-71
2022/03/19 07:13:16;;;;;;;11.20;4.07;;;4.80;99.90;;;;;;5033607;28;20525;-70
2022/03/19 07:15:41;;;;;;;17.27;4.03;;;4.80;99.90;;;;;;5035650;28;20029;-71
2022/03/19 07:18:07;;;;;;;14.30;5.17;;;4.90;99.90;;;;;;5025718;28;20037;-70
2022/03/19 07:20:35;;;;;;;15.17;4.73;;;5.00;99.90;;;;;;5027545;28;20512;-71
2022/03/19 07:23:03;;;;;;;11.77;4.55;;;5.00;99.90;;;;;;5046567;28;20283;-71
2022/03/19 07:25:37;;;;;;;13.30;4.57;;;5.10;99.90;;;;;;5020051;28;20191;-71
2022/03/19 07:28:09;;;;;;;9.07;4.18;;;5.10;99.90;;;;;;5023683;28;20286;-71
2022/03/19 07:30:35;;;;;;;24.60;4.95;;;5.20;99.90;;;;;;5023250;28;20076;-71
2022/03/19 07:33:01;;;;;;;16.25;4.55;;;5.20;99.90;;;;;;5030329;28;20114;-71
2022/03/19 07:35:27;;;;;;;12.60;4.67;;;5.30;99.90;;;;;;5042788;28;20048;-71
2022/03/19 07:37:53;;;;;;;10.48;4.47;;;5.40;99.90;;;;;;5031060;28;20123;-71
2022/03/19 07:41:45;;;;;;;9.07;3.83;;;5.50;99.90;;;;;;5040680;28;20805;-71
2022/03/19 07:43:07;;;;;;;14.50;4.40;;;5.60;99.90;;;;;;5015695;28;20052;-71
2022/03/19 07:45:34;;;;;;;10.48;4.55;;;5.60;99.90;;;;;;5019766;28;20095;-71
2022/03/19 07:48:00;;;;;;;15.85;4.60;;;5.70;99.90;;;;;;5031409;28;20300;-71
2022/03/19 07:50:26;;;;;;;14.90;4.30;;;5.80;99.90;;;;;;5018853;28;20049;-71
2022/03/19 07:52:52;;;;;;;10.25;5.10;;;5.80;99.90;;;;;;5048061;28;20274;-71
2022/03/19 07:55:18;;;;;;;9.73;4.10;;;5.90;99.90;;;;;;5038851;28;20048;-69
2022/03/19 07:57:44;;;;;;;12.63;4.13;;;6.00;99.90;;;;;;5043946;28;20042;-71
2022/03/19 08:00:12;;;;;;;13.77;4.50;;;6.10;99.90;;;;;;5017083;28;20037;-71
2022/03/19 08:02:41;;;;;;;15.57;4.28;;;6.20;99.90;;;;;;5040053;28;20032;-71
2022/03/19 08:05:08;;;;;;;13.48;4.93;;;6.30;99.90;;;;;;5050936;28;20418;-71
2022/03/19 08:07:34;;;;;;;18.08;5.30;;;6.40;99.90;;;;;;5021755;28;20107;-71
2022/03/19 08:10:00;;;;;;;;;;;6.40;99.90;;;;;;5042437;28;20037;-71
2022/03/19 08:12:27;;;;;;;11.13;4.05;;;6.50;99.90;;;;;;5026526;28;20430;-71
2022/03/19 08:14:55;;;;;;;12.52;3.70;;;6.50;99.90;;;;;;5047312;28;20033;-71
2022/03/19 08:17:20;;;;;;;16.80;4.50;;;6.60;99.90;;;;;;5026878;28;20044;-71
2022/03/19 08:19:46;;;;;;;21.70;5.70;;;6.70;99.90;;;;;;5032615;28;20302;-71
2022/03/19 08:22:12;;;;;;;17.87;5.10;;;6.80;99.90;;;;;;5031736;28;20408;-71
2022/03/19 08:24:39;;;;;;;17.73;4.23;;;6.90;99.90;;;;;;5051088;28;20037;-71
2022/03/19 08:27:05;;;;;;;15.32;4.65;;;6.90;99.90;;;;;;5029505;28;20041;-71
2022/03/19 08:29:30;;;;;;;13.60;3.77;;;7.00;99.90;;;;;;5020804;28;20505;-71
2022/03/19 08:31:56;;;;;;;12.17;4.00;;;7.10;99.90;;;;;;5034599;22;20052;-67
2022/03/19 08:34:22;;;;;;;15.50;5.67;;;7.20;99.90;;;;;;5053145;28;20040;-67
2022/03/19 08:36:48;;;;;;;14.98;4.18;;;7.30;99.90;;;;;;5044630;28;20072;-67
2022/03/19 08:41:59;;;;;;;17.98;4.80;;;7.50;99.90;;;;;;5059167;28;20049;-67
2022/03/19 08:44:26;;;;;;;13.73;5.03;;;7.50;99.90;;;;;;5046021;28;20052;-67
2022/03/19 08:46:52;;;;;;;15.77;4.72;;;7.60;99.90;;;;;;5063692;28;20025;-67
2022/03/19 08:49:18;;;;;;;13.30;3.20;;;7.70;99.90;;;;;;5043288;28;20534;-67
2022/03/19 08:51:44;;;;;;;15.75;4.03;;;7.80;99.90;;;;;;5065258;28;20086;-67
2022/03/19 08:54:20;;;;;;;11.88;3.50;;;7.80;99.90;;;;;;5040192;28;22044;-67
2022/03/19 08:56:48;;;;;;;10.68;3.35;;;7.90;99.90;;;;;;5045952;28;20119;-67
2022/03/19 08:59:16;;;;;;;11.85;3.38;;;8.00;99.90;;;;;;5027977;28;20036;-67
2022/03/19 09:01:43;;;;;;;11.43;2.70;;;8.10;99.90;;;;;;5042731;28;20116;-67
2022/03/19 09:04:10;;;;;;;12.82;3.30;;;8.20;99.90;;;;;;5061520;28;20116;-68
2022/03/19 09:06:37;;;;;;;14.50;4.38;;;8.30;99.90;;;;;;5037813;28;20420;-67
2022/03/19 09:09:03;;;;;;;9.65;2.80;;;8.40;99.90;;;;;;5057630;28;20418;-67
2022/03/19 09:11:31;;;;;;;11.60;2.83;;;8.50;99.90;;;;;;5058942;28;20037;-67
2022/03/19 09:13:57;;;;;;;8.93;2.85;;;8.50;99.90;;;;;;5056160;28;20036;-67
2022/03/19 09:16:24;;;;;;;9.38;2.60;;;8.60;99.90;;;;;;5040568;28;20045;-67
2022/03/19 09:18:50;;;;;;;9.23;2.65;;;8.70;99.90;;;;;;5045717;28;20091;-67
2022/03/19 09:21:17;;;;;;;15.32;2.20;;;8.80;99.90;;;;;;5055756;28;20134;-67
2022/03/19 09:23:45;;;;;;;13.35;2.20;;;8.90;99.90;;;;;;5055242;28;20082;-67
2022/03/19 09:26:11;;;;;;;16.08;3.35;;;9.00;99.90;;;;;;5058524;28;20040;-67
2022/03/19 09:28:40;;;;;;;11.23;3.72;;;9.00;99.90;;;;;;5045265;28;20048;-67
2022/03/19 09:31:05;;;;;;;10.68;2.88;;;9.10;99.90;;;;;;5035305;28;20086;-67
2022/03/19 09:33:31;;;;;;;10.83;1.87;;;9.20;99.90;;;;;;5045368;28;20219;-67
2022/03/19 09:36:00;;;;;;;7.47;2.20;;;9.30;99.90;;;;;;5040385;28;20147;-68
2022/03/19 09:38:27;;;;;;;9.70;1.95;;;9.40;98.00;;;;;;5057223;28;20654;-67
2022/03/19 09:40:52;;;;;;;9.27;2.20;;;9.50;91.60;;;;;;5042171;28;20048;-67
2022/03/19 09:43:21;;;;;;;8.60;2.37;;;9.60;92.00;;;;;;5058272;28;20102;-68
2022/03/19 09:45:47;;;;;;;4.72;1.48;;;9.70;93.80;;;;;;5062189;28;20040;-67
2022/03/19 09:48:12;;;;;;;12.70;2.42;;;9.80;86.50;;;;;;5060590;28;20493;-67
2022/03/19 09:50:38;;;;;;;11.87;2.17;;;9.90;88.90;;;;;;5036892;28;20037;-67
2022/03/19 09:53:05;;;;;;;9.52;2.25;;;10.00;90.00;;;;;;5061293;28;20042;-67
2022/03/19 09:55:33;;;;;;;7.22;2.50;;;10.10;90.70;;;;;;5034407;28;20041;-67
2022/03/19 09:57:58;;;;;;;8.23;1.35;;;10.20;85.10;;;;;;5061923;28;20044;-67
2022/03/19 10:00:25;;;;;;;4.73;1.70;;;10.30;80.10;;;;;;5037743;28;20045;-67
2022/03/19 10:03:01;;;;;;;;;;;10.30;76.70;;;;;;5043856;28;20075;-67
2022/03/19 10:11:04;;;;;;;10.95;1.85;;;10.60;75.10;;;;;;5056961;28;20037;-67
2022/03/19 10:13:30;;;;;;;5.18;1.50;;;10.60;71.60;;;;;;5059688;28;20043;-68
2022/03/19 10:15:56;;;;;;;9.38;1.80;;;10.70;71.20;;;;;;5053559;28;20045;-67
2022/03/19 10:18:29;;;;;;;9.23;1.63;;;10.80;69.40;;;;;;5043907;28;20248;-67
2022/03/19 10:20:58;;;;;;;6.88;1.48;;;10.90;67.10;;;;;;5047450;28;20499;-67
2022/03/19 10:23:36;;;;;;;8.35;2.13;;;11.00;68.00;;;;;;5053052;28;20041;-67
2022/03/19 10:26:02;;;;;;;6.03;1.60;;;11.20;68.00;;;;;;5056555;28;20052;-67
2022/03/19 10:28:35;;;;;;;8.25;1.85;;;11.30;67.00;;;;;;5038560;28;20098;-67
2022/03/19 10:31:02;;;;;;;17.48;2.60;;;11.30;64.40;;;;;;5038540;28;20419;-68
2022/03/19 10:33:33;;;;;;;6.32;1.90;;;11.30;65.40;;;;;;5055509;28;20044;-67
2022/03/19 10:36:06;;;;;;;8.98;1.45;;;11.40;64.40;;;;;;5043250;28;20122;-67
2022/03/19 10:38:41;;;;;;;5.13;1.80;;;11.40;61.70;;;;;;5039178;28;20154;-68
2022/03/19 10:41:07;;;;;;;6.93;1.52;;;11.50;61.80;;;;;;5039404;28;20052;-67
2022/03/19 10:43:33;;;;;;;7.38;1.98;;;11.60;61.80;;;;;;5039307;28;20040;-67
2022/03/19 10:46:02;;;;;;;7.70;1.40;;;11.70;61.90;;;;;;5048596;28;20270;-67
2022/03/19 10:48:29;;;;;;;5.38;1.90;;;11.80;62.00;;;;;;5058561;28;20043;-67
2022/03/19 10:50:55;;;;;;;6.35;2.03;;;11.80;61.90;;;;;;5038339;28;20518;-67
2022/03/19 10:53:22;;;;;;;10.48;2.00;;;11.90;61.90;;;;;;5039388;28;20051;-68
2022/03/19 10:55:48;;;;;;;8.32;1.48;;;12.00;61.30;;;;;;5043889;28;20040;-67
2022/03/19 10:58:14;;;;;;;6.15;1.63;;;12.10;62.70;;;;;;5060911;28;20055;-68
2022/03/19 11:00:41;;;;;;;7.75;1.88;;;12.20;61.50;;;;;;5024429;28;20047;-68
2022/03/19 11:03:27;;;;;;;5.53;1.60;;;12.30;60.30;;;;;;5039232;28;20044;-67
2022/03/19 11:06:02;;;;;;;7.75;1.90;;;12.40;59.80;;;;;;5064894;28;20090;-68
2022/03/19 11:08:30;;;;;;;8.40;2.17;;;12.50;59.90;;;;;;5046972;28;20040;-67
2022/03/19 11:10:59;;;;;;;7.28;1.88;;;12.50;59.40;;;;;;5044416;28;20093;-67
2022/03/19 11:13:27;;;;;;;4.65;1.20;;;12.60;57.70;;;;;;5038167;28;20044;-67
2022/03/19 11:15:55;;;;;;;2.70;1.48;;;12.60;58.00;;;;;;5053673;28;20393;-68
2022/03/19 11:18:22;;;;;;;7.13;1.77;;;12.60;57.50;;;;;;5060862;28;20047;-67
2022/03/19 11:20:49;;;;;;;10.63;2.42;;;12.70;56.80;;;;;;5042537;28;20041;-68
2022/03/19 11:23:21;;;;;;;8.25;1.77;;;12.80;57.40;;;;;;5054401;28;20543;-67
2022/03/19 11:25:53;;;;;;;9.02;1.88;;;12.90;57.10;;;;;;5041125;28;20036;-67
2022/03/19 11:28:19;;;;;;;3.90;1.30;;;12.90;56.70;;;;;;5043691;28;20131;-67
2022/03/19 11:31:03;;;;;;;;;;;13.00;56.30;;;;;;5058214;28;20408;-67
2022/03/19 11:33:32;;;;;;;7.22;2.05;;;13.00;51.30;;;;;;5038412;28;19924;-68
2022/03/19 11:35:59;;;;;;;5.13;1.48;;;13.10;54.90;;;;;;5061408;28;20115;-67
2022/03/19 11:38:25;;;;;;;5.17;1.70;;;13.20;55.50;;;;;;5059625;28;20136;-67
2022/03/19 11:40:58;;;;;;;;;;;13.30;54.40;;;;;;5041941;28;20401;-67
2022/03/19 11:43:26;;;;;;;3.63;1.20;;;13.40;50.00;;;;;;5037278;28;19930;-67
2022/03/19 11:46:00;;;;;;;6.15;1.60;;;13.50;52.80;;;;;;5065546;28;20036;-67
2022/03/19 11:48:38;;;;;;;9.02;1.60;;;13.60;53.40;;;;;;5042833;28;20045;-68
2022/03/19 11:51:15;;;;;;;5.00;1.55;;;13.60;52.00;;;;;;5065844;28;20047;-67
2022/03/19 11:54:12;;;;;;;7.30;2.03;;;13.60;52.50;;;;;;5043658;28;20511;-68
2022/03/19 11:56:40;;;;;;;7.15;2.00;;;13.60;52.50;;;;;;5067281;28;20094;-68
2022/03/19 11:59:12;;;;;;;6.72;1.88;;;13.70;53.10;;;;;;5045435;28;20049;-68
2022/03/19 12:02:05;;;;;;;4.72;1.67;;;13.80;53.60;;;;;;5064469;28;20063;-68
2022/03/19 12:04:40;;;;;;;6.50;1.77;;;14.00;51.70;;;;;;5058192;28;20032;-67
2022/03/19 12:07:06;;;;;;;8.40;1.42;;;14.10;50.40;;;;;;5054893;28;20194;-68
2022/03/19 12:09:53;;;;;;;5.32;1.95;;;14.10;51.40;;;;;;5053846;28;20560;-67
2022/03/19 12:12:24;;;;;;;2.70;1.73;;;14.10;50.40;;;;;;5039134;28;20047;-68
2022/03/19 12:14:50;;;;;;;5.18;1.17;;;14.10;49.70;;;;;;5061055;28;20118;-68
2022/03/19 12:17:17;;;;;;;;;;;14.10;50.00;;;;;;5054910;28;20048;-67
2022/03/19 12:20:00;;;;;;;6.03;1.10;;;14.10;47.90;;;;;;5047011;28;19965;-67
2022/03/19 12:22:38;;;;;;;5.03;1.05;;;14.10;49.20;;;;;;5046381;28;20087;-67
2022/03/19 12:25:18;;;;;;;4.70;1.00;;;14.20;49.90;;;;;;5030552;28;20052;-68
2022/03/19 12:27:55;;;;;;;5.50;1.10;;;14.30;49.30;;;;;;5058947;28;20447;-68
2022/03/19 12:30:22;;;;;;;4.70;1.42;;;14.30;49.30;;;;;;5058861;28;20071;-68
2022/03/19 12:32:54;;;;;;;5.05;0.90;;;14.40;50.40;;;;;;5038489;28;20037;-67
2022/03/19 12:35:24;;;;;;;2.83;0.95;;;14.50;50.10;;;;;;5048730;28;20052;-68
2022/03/19 12:37:55;;;;;;;2.85;1.23;;;14.50;49.60;;;;;;5021179;28;20052;-68
2022/03/19 12:40:23;;;;;;;3.58;1.20;;;14.60;50.60;;;;;;5016548;28;20091;-67
2022/03/19 12:42:57;;;;;;;2.08;0.80;;;14.70;49.60;;;;;;5028797;28;20175;-67
2022/03/19 12:45:36;;;;;;;1.65;0.60;;;14.80;46.80;;;;;;5039646;28;20056;-68
2022/03/19 12:48:07;;;;;;;5.60;1.20;;;14.60;45.30;;;;;;5052874;28;20187;-67
2022/03/19 12:50:36;;;;;;;4.15;1.00;;;14.70;46.90;;;;;;5039312;28;20048;-67
2022/03/19 12:53:02;;;;;;;2.85;1.00;;;14.70;47.60;;;;;;5062339;28;20032;-67
2022/03/19 12:55:27;;;;;;;2.78;0.65;;;14.70;47.50;;;;;;5059537;28;20040;-68
2022/03/19 12:58:01;;;;;;;6.10;1.30;;;14.80;48.50;;;;;;5056604;28;20529;-67
2022/03/19 13:00:27;;;;;;;2.65;1.00;;;14.80;45.90;;;;;;5057875;28;20051;-67
2022/03/19 13:02:54;;;;;;;4.30;0.90;;;14.90;47.10;;;;;;5043861;28;20040;-68
2022/03/19 13:05:21;;;;;;;3.88;0.93;;;14.90;46.40;;;;;;5058544;28;20051;-67
2022/03/19 13:08:04;;;;;;;2.00;0.70;;;14.80;46.30;;;;;;5044009;28;20510;-67
2022/03/19 13:10:39;;;;;;;2.05;0.68;;;15.00;45.60;;;;;;5045373;28;20043;-68